createdAt,value
2023-02-12T00:01:08.180Z,102433.56
2023-02-12T00:03:35.717Z,102427.25
2023-02-12T00:06:03.329Z,102430.03
2023-02-12T00:08:29.657Z,102430.19
2023-02-12T00:10:56.219Z,102430.69
2023-02-12T00:13:23.206Z,102436.59
2023-02-12T00:15:50.130Z,102436.50
2023-02-12T00:18:16.437Z,102430.97
2023-02-12T00:20:42.972Z,102440.16
2023-02-12T00:23:10.582Z,102428.81
2023-02-12T00:25:40.920Z,102439.31
2023-02-12T00:28:07.331Z,102448.47
2023-02-12T00:30:34.759Z,102453.72
2023-02-12T00:33:00.935Z,102463.53
2023-02-12T00:35:27.455Z,102467.72
2023-02-12T00:37:53.616Z,102477.31
2023-02-12T00:40:20.244Z,102484.03
2023-02-12T00:42:46.394Z,102480.97
2023-02-12T00:45:13.118Z,102476.25
2023-02-12T00:47:39.303Z,102480.69
2023-02-12T00:50:06.572Z,102483.00
2023-02-12T00:52:33.063Z,102474.84
2023-02-12T00:54:59.528Z,102489.25
2023-02-12T00:57:25.669Z,102496.22
2023-02-12T00:59:52.092Z,102496.06
2023-02-12T01:02:18.282Z,102503.03
2023-02-12T01:04:46.517Z,102506.44
2023-02-12T01:07:12.816Z,102510.00
2023-02-12T01:09:39.267Z,102513.25
2023-02-12T01:12:05.935Z,102515.38
2023-02-12T01:14:32.524Z,102527.00
2023-02-12T01:16:58.670Z,102522.00
2023-02-12T01:19:25.368Z,102529.56
2023-02-12T01:21:51.503Z,102523.22
2023-02-12T01:24:17.976Z,102527.53
2023-02-12T01:26:44.126Z,102533.97
2023-02-12T01:29:10.775Z,102544.66
2023-02-12T01:31:38.866Z,102535.63
2023-02-12T01:34:07.070Z,102544.00
2023-02-12T01:36:33.805Z,102548.38
2023-02-12T01:39:02.110Z,102548.91
2023-02-12T01:41:32.231Z,102554.56
2023-02-12T01:44:09.128Z,102548.47
2023-02-12T01:46:35.805Z,102556.13
2023-02-12T01:49:06.028Z,102557.22
2023-02-12T01:51:34.276Z,102551.19
2023-02-12T01:54:07.247Z,102552.38
2023-02-12T01:56:33.895Z,102555.22
2023-02-12T01:59:00.651Z,102549.31
2023-02-12T02:01:30.270Z,102561.81
2023-02-12T02:04:14.146Z,102557.72
2023-02-12T02:06:52.249Z,102553.78
2023-02-12T02:09:19.178Z,102560.72
2023-02-12T02:12:04.118Z,102562.06
2023-02-12T02:14:33.703Z,102560.81
2023-02-12T02:17:29.869Z,102574.97
2023-02-12T02:20:12.274Z,102581.22
2023-02-12T02:22:41.536Z,102578.53
2023-02-12T02:25:29.220Z,102579.31
2023-02-12T02:27:55.227Z,102576.53
2023-02-12T02:30:44.714Z,102590.78
2023-02-12T02:33:39.583Z,102595.16
2023-02-12T02:36:24.858Z,102593.25
2023-02-12T02:38:59.189Z,102590.50
2023-02-12T02:41:35.391Z,102598.50
2023-02-12T02:44:09.604Z,102594.94
2023-02-12T02:46:44.178Z,102598.41
2023-02-12T02:49:17.936Z,102599.34
2023-02-12T02:51:49.156Z,102597.28
2023-02-12T02:54:33.052Z,102602.50
2023-02-12T02:57:07.397Z,102604.09
2023-02-12T02:59:42.001Z,102601.25
2023-02-12T03:02:13.480Z,102613.69
2023-02-12T03:04:49.321Z,102613.63
2023-02-12T03:07:24.669Z,102622.56
2023-02-12T03:10:00.544Z,102615.34
2023-02-12T03:12:54.594Z,102627.00
2023-02-12T03:15:36.562Z,102626.13
2023-02-12T03:18:07.711Z,102629.69
2023-02-12T03:20:41.363Z,102629.69
2023-02-12T03:23:16.656Z,102634.91
2023-02-12T03:25:56.372Z,102636.75
2023-02-12T03:28:29.231Z,102644.88
2023-02-12T03:31:17.738Z,102649.31
2023-02-12T03:34:03.090Z,102647.50
2023-02-12T03:36:41.231Z,102660.81
2023-02-12T03:39:19.379Z,102656.31
2023-02-12T03:41:57.368Z,102659.88
2023-02-12T03:44:43.767Z,102665.06
2023-02-12T03:47:31.837Z,102671.66
2023-02-12T03:50:22.451Z,102676.97
2023-02-12T03:52:50.058Z,102672.13
2023-02-12T03:55:16.882Z,102677.56
2023-02-12T03:57:52.343Z,102684.63
2023-02-12T04:00:23.111Z,102690.28
2023-02-12T04:02:51.280Z,102689.34
2023-02-12T04:05:26.504Z,102686.72
2023-02-12T04:07:56.234Z,102691.22
2023-02-12T04:10:31.846Z,102692.47
2023-02-12T04:13:14.908Z,102696.19
2023-02-12T04:15:50.991Z,102708.25
2023-02-12T04:18:23.717Z,102700.31
2023-02-12T04:21:22.455Z,102712.16
2023-02-12T04:24:41.510Z,102704.47
2023-02-12T04:27:25.713Z,102713.88
2023-02-12T04:30:04.929Z,102717.22
2023-02-12T04:32:45.745Z,102706.47
2023-02-12T04:35:16.913Z,102718.16
2023-02-12T04:37:48.424Z,102715.09
2023-02-12T04:40:17.634Z,102713.44
2023-02-12T04:42:46.792Z,102715.69
2023-02-12T04:45:20.223Z,102715.75
2023-02-12T04:47:46.941Z,102710.94
2023-02-12T04:50:13.666Z,102719.44
2023-02-12T04:52:40.492Z,102715.38
2023-02-12T04:55:06.978Z,102715.16
2023-02-12T04:57:33.745Z,102719.91
2023-02-12T05:00:00.315Z,102724.56
2023-02-12T05:02:26.920Z,102727.41
2023-02-12T05:04:53.307Z,102724.84
2023-02-12T05:07:20.081Z,102727.78
2023-02-12T05:09:46.380Z,102734.75
2023-02-12T05:12:13.252Z,102744.88
2023-02-12T05:14:39.613Z,102745.44
2023-02-12T05:17:06.326Z,102748.94
2023-02-12T05:19:32.656Z,102751.25
2023-02-12T05:21:59.379Z,102755.25
2023-02-12T05:24:25.553Z,102765.81
2023-02-12T05:26:52.460Z,102767.84
2023-02-12T05:29:18.994Z,102772.22
2023-02-12T05:31:45.676Z,102781.53
2023-02-12T05:34:12.622Z,102779.44
2023-02-12T05:36:39.713Z,102786.78
2023-02-12T05:39:06.947Z,102787.41
2023-02-12T05:41:36.811Z,102789.38
2023-02-12T05:44:04.947Z,102795.22
2023-02-12T05:46:32.066Z,102800.97
2023-02-12T05:48:58.364Z,102806.28
2023-02-12T05:51:26.463Z,102807.28
2023-02-12T05:53:58.043Z,102811.94
2023-02-12T05:56:29.010Z,102819.22
2023-02-12T05:59:06.382Z,102821.41
2023-02-12T06:01:34.386Z,102812.81
2023-02-12T06:04:01.681Z,102825.56
2023-02-12T06:06:29.223Z,102827.53
2023-02-12T06:08:56.599Z,102833.72
2023-02-12T06:11:23.577Z,102834.50
2023-02-12T06:13:50.012Z,102846.09
2023-02-12T06:16:22.101Z,102855.63
2023-02-12T06:18:48.666Z,102853.88
2023-02-12T06:21:17.043Z,102857.66
2023-02-12T06:23:43.316Z,102863.63
2023-02-12T06:26:10.090Z,102857.94
2023-02-12T06:28:36.397Z,102860.34
2023-02-12T06:31:04.033Z,102874.41
2023-02-12T06:33:30.604Z,102876.28
2023-02-12T06:35:57.458Z,102881.38
2023-02-12T06:38:23.783Z,102871.09
2023-02-12T06:40:50.272Z,102883.84
2023-02-12T06:43:16.508Z,102879.84
2023-02-12T06:45:42.964Z,102887.00
2023-02-12T06:48:09.111Z,102894.94
2023-02-12T06:50:35.611Z,102895.66
2023-02-12T06:53:01.765Z,102891.72
2023-02-12T06:55:28.243Z,102904.66
2023-02-12T06:57:54.730Z,102905.25
2023-02-12T07:00:21.688Z,102909.03
2023-02-12T07:02:55.192Z,102909.31
2023-02-12T07:05:23.372Z,102905.09
2023-02-12T07:07:49.564Z,102914.03
2023-02-12T07:10:17.190Z,102916.25
2023-02-12T07:12:43.753Z,102916.44
2023-02-12T07:15:10.568Z,102915.97
2023-02-12T07:17:36.977Z,102918.09
2023-02-12T07:20:04.579Z,102918.59
2023-02-12T07:22:31.128Z,102915.25
2023-02-12T07:24:57.619Z,102912.84
2023-02-12T07:27:23.935Z,102924.63
2023-02-12T07:29:51.153Z,102917.84
2023-02-12T07:32:17.571Z,102915.44
2023-02-12T07:34:44.138Z,102922.50
2023-02-12T07:37:10.781Z,102923.00
2023-02-12T07:39:37.269Z,102921.97
2023-02-12T07:42:03.751Z,102929.91
2023-02-12T07:44:31.776Z,102928.63
2023-02-12T07:46:57.999Z,102927.53
2023-02-12T07:49:24.736Z,102934.94
2023-02-12T07:51:51.228Z,102945.16
2023-02-12T07:54:17.901Z,102949.88
2023-02-12T07:56:46.216Z,102945.09
2023-02-12T07:59:15.424Z,102955.00
2023-02-12T08:01:52.900Z,102957.81
2023-02-12T08:04:22.451Z,102956.75
2023-02-12T08:06:50.793Z,102945.03
2023-02-12T08:09:20.349Z,102962.19
2023-02-12T08:11:47.249Z,102959.88
2023-02-12T08:14:16.327Z,102957.25
2023-02-12T08:16:44.908Z,102962.50
2023-02-12T08:19:19.049Z,102965.84
2023-02-12T08:21:49.576Z,102959.25
2023-02-12T08:24:15.891Z,102955.59
2023-02-12T08:26:43.565Z,102961.66
2023-02-12T08:29:13.473Z,102955.59
2023-02-12T08:31:46.290Z,102956.66
2023-02-12T08:34:21.585Z,102954.47
2023-02-12T08:36:49.998Z,102964.88
2023-02-12T08:39:17.718Z,102966.84
2023-02-12T08:41:45.179Z,102976.69
2023-02-12T08:44:12.526Z,102978.44
2023-02-12T08:46:43.333Z,102982.06
2023-02-12T08:49:24.319Z,102980.53
2023-02-12T08:51:52.690Z,102985.78
2023-02-12T08:54:25.192Z,102974.06
2023-02-12T08:56:59.977Z,102977.03
2023-02-12T08:59:26.614Z,102976.16
2023-02-12T09:01:53.694Z,102973.25
2023-02-12T09:04:27.683Z,102976.13
2023-02-12T09:06:54.674Z,102980.41
2023-02-12T09:09:21.134Z,102988.22
2023-02-12T09:11:48.626Z,102990.09
2023-02-12T09:14:16.980Z,102991.19
2023-02-12T09:16:44.136Z,102991.78
2023-02-12T09:19:14.515Z,102999.38
2023-02-12T09:21:42.111Z,102996.19
2023-02-12T09:24:08.986Z,102997.56
2023-02-12T09:26:35.987Z,103007.25
2023-02-12T09:29:03.810Z,103006.19
2023-02-12T09:31:31.984Z,103007.25
2023-02-12T09:34:01.636Z,103010.72
2023-02-12T09:36:29.367Z,103008.53
2023-02-12T09:38:56.809Z,103012.03
2023-02-12T09:41:54.544Z,103016.84
2023-02-12T09:44:42.439Z,103012.25
2023-02-12T09:47:13.185Z,103015.66
2023-02-12T09:49:42.581Z,103014.94
2023-02-12T09:52:28.799Z,103009.41
2023-02-12T09:54:55.813Z,103011.38
2023-02-12T09:57:35.505Z,103011.44
2023-02-12T10:00:21.419Z,103012.88
2023-02-12T10:02:51.474Z,103018.84
2023-02-12T10:05:40.982Z,103016.66
2023-02-12T10:08:25.095Z,103012.88
2023-02-12T10:10:51.537Z,103016.34
2023-02-12T10:13:47.496Z,103009.13
2023-02-12T10:16:58.214Z,103011.03
2023-02-12T10:19:36.892Z,103009.78
2023-02-12T10:22:21.889Z,103012.31
2023-02-12T10:24:56.222Z,103004.38
2023-02-12T10:27:33.146Z,102999.22
2023-02-12T10:30:00.576Z,103009.94
2023-02-12T10:32:32.476Z,103005.56
2023-02-12T10:34:59.438Z,103006.28
2023-02-12T10:37:39.654Z,103014.88
2023-02-12T10:40:16.301Z,103005.53
2023-02-12T10:42:46.335Z,103003.94
2023-02-12T10:45:15.833Z,103009.81
2023-02-12T10:47:49.785Z,103010.63
2023-02-12T10:50:33.701Z,103009.03
2023-02-12T10:53:03.084Z,103008.72
2023-02-12T10:55:32.776Z,103009.09
2023-02-12T10:58:01.412Z,103016.03
2023-02-12T11:00:34.726Z,103005.63
2023-02-12T11:03:01.000Z,103012.53
2023-02-12T11:05:30.366Z,102986.63
2023-02-12T11:07:59.725Z,102998.31
2023-02-12T11:10:31.265Z,103004.09
2023-02-12T11:12:59.244Z,103008.63
2023-02-12T11:15:30.632Z,103002.53
2023-02-12T11:18:05.435Z,102994.91
2023-02-12T11:20:40.639Z,103000.69
2023-02-12T11:23:29.443Z,103005.06
2023-02-12T11:25:59.148Z,103001.72
2023-02-12T11:28:26.847Z,103004.44
2023-02-12T11:31:00.216Z,102998.72
2023-02-12T11:33:34.758Z,103005.13
2023-02-12T11:36:12.936Z,102994.41
2023-02-12T11:38:52.498Z,102997.28
2023-02-12T11:41:25.405Z,102992.91
2023-02-12T11:43:52.990Z,102994.34
2023-02-12T11:46:25.907Z,102989.56
2023-02-12T11:48:54.931Z,102998.34
2023-02-12T11:51:29.460Z,102993.88
2023-02-12T11:54:01.457Z,102982.03
2023-02-12T11:56:43.924Z,102986.22
2023-02-12T11:59:37.801Z,102986.47
2023-02-12T12:02:27.007Z,102980.47
2023-02-12T12:05:02.558Z,102987.06
2023-02-12T12:07:33.530Z,102983.34
2023-02-12T12:10:07.074Z,102981.00
2023-02-12T12:12:47.573Z,102973.84
2023-02-12T12:15:51.985Z,102984.03
2023-02-12T12:19:06.860Z,102986.72
2023-02-12T12:21:33.456Z,102983.72
2023-02-12T12:24:26.248Z,102985.41
2023-02-12T12:27:02.509Z,102976.81
2023-02-12T12:29:49.949Z,102974.84
2023-02-12T12:32:20.114Z,102973.09
2023-02-12T12:34:47.176Z,102974.03
2023-02-12T12:37:34.685Z,102967.84
2023-02-12T12:40:07.601Z,102960.88
2023-02-12T12:42:52.487Z,102962.44
2023-02-12T12:45:28.551Z,102954.78
2023-02-12T12:48:28.500Z,102946.44
2023-02-12T12:51:22.936Z,102942.44
2023-02-12T12:53:54.571Z,102944.09
2023-02-12T12:56:27.932Z,102944.28
2023-02-12T12:59:26.216Z,102949.94
2023-02-12T13:02:15.461Z,102956.53
2023-02-12T13:04:45.057Z,102960.13
2023-02-12T13:07:26.781Z,102958.91
2023-02-12T13:10:17.954Z,102956.03
2023-02-12T13:13:00.063Z,102949.50
2023-02-12T13:15:46.096Z,102943.31
2023-02-12T13:19:07.304Z,102954.13
2023-02-12T13:21:57.335Z,102937.75
2023-02-12T13:24:42.211Z,102946.81
2023-02-12T13:27:18.365Z,102945.22
2023-02-12T13:29:51.996Z,102936.16
2023-02-12T13:32:29.033Z,102929.97
2023-02-12T13:34:57.202Z,102928.84
2023-02-12T13:37:36.024Z,102926.75
2023-02-12T13:40:06.506Z,102938.97
2023-02-12T13:43:06.421Z,102924.41
2023-02-12T13:45:33.336Z,102920.28
2023-02-12T13:48:18.070Z,102925.25
2023-02-12T13:51:01.032Z,102922.34
2023-02-12T13:53:46.953Z,102924.41
2023-02-12T13:56:39.887Z,102924.66
2023-02-12T13:59:34.960Z,102922.63
2023-02-12T14:02:22.317Z,102927.69
2023-02-12T14:04:59.281Z,102925.94
2023-02-12T14:07:49.760Z,102934.69
2023-02-12T14:10:34.217Z,102929.44
2023-02-12T14:13:24.991Z,102930.56
2023-02-12T14:15:55.696Z,102928.03
2023-02-12T14:18:34.775Z,102933.97
2023-02-12T14:21:13.439Z,102933.72
2023-02-12T14:23:41.968Z,102927.03
2023-02-12T14:26:12.732Z,102929.91
2023-02-12T14:29:01.253Z,102936.25
2023-02-12T14:31:33.017Z,102929.81
2023-02-12T14:34:06.781Z,102937.84
2023-02-12T14:36:38.095Z,102935.31
2023-02-12T14:39:29.122Z,102944.97
2023-02-12T14:42:15.520Z,102949.34
2023-02-12T14:44:45.675Z,102942.03
2023-02-12T14:47:30.199Z,102940.13
2023-02-12T14:50:02.367Z,102934.00
2023-02-12T14:52:39.094Z,102937.50
2023-02-12T14:55:18.418Z,102941.16
2023-02-12T14:57:45.716Z,102941.88
2023-02-12T15:00:21.976Z,102939.41
2023-02-12T15:03:21.717Z,102938.28
2023-02-12T15:06:06.242Z,102946.72
2023-02-12T15:09:00.601Z,102946.72
2023-02-12T15:11:46.688Z,102946.91
2023-02-12T15:14:31.374Z,102947.69
2023-02-12T15:17:09.395Z,102954.38
2023-02-12T15:19:47.671Z,102951.59
2023-02-12T15:22:36.361Z,102945.97
2023-02-12T15:25:29.305Z,102952.56
2023-02-12T15:28:35.941Z,102944.53
2023-02-12T15:31:05.667Z,102960.03
2023-02-12T15:33:34.728Z,102958.22
2023-02-12T15:36:03.109Z,102960.13
2023-02-12T15:38:35.590Z,102959.31
2023-02-12T15:41:03.559Z,102958.84
2023-02-12T15:43:35.739Z,102953.59
2023-02-12T15:46:08.317Z,102952.00
2023-02-12T15:48:36.740Z,102948.34
2023-02-12T15:51:21.284Z,102950.97
2023-02-12T15:53:49.054Z,102960.59
2023-02-12T15:56:21.037Z,102954.16
2023-02-12T15:58:51.747Z,102961.78
2023-02-12T16:01:21.119Z,102959.47
2023-02-12T16:03:51.298Z,102954.09
2023-02-12T16:06:19.593Z,102954.97
2023-02-12T16:08:49.685Z,102963.13
2023-02-12T16:11:20.567Z,102947.16
2023-02-12T16:13:55.037Z,102948.84
2023-02-12T16:16:25.895Z,102956.47
2023-02-12T16:19:26.832Z,102953.44
2023-02-12T16:22:07.806Z,102954.41
2023-02-12T16:24:38.537Z,102957.56
2023-02-12T16:27:14.416Z,102952.09
2023-02-12T16:29:47.898Z,102954.00
2023-02-12T16:32:34.937Z,102957.56
2023-02-12T16:35:14.055Z,102959.16
2023-02-12T16:37:45.154Z,102961.69
2023-02-12T16:40:12.119Z,102968.84
2023-02-12T16:42:47.221Z,102970.34
2023-02-12T16:45:26.188Z,102968.53
2023-02-12T16:48:08.408Z,102972.41
2023-02-12T16:50:46.024Z,102977.81
2023-02-12T16:53:29.298Z,102976.94
2023-02-12T16:55:57.637Z,102976.78
2023-02-12T16:58:25.983Z,102968.75
2023-02-12T17:00:57.688Z,102967.97
2023-02-12T17:03:25.611Z,102967.31
2023-02-12T17:05:53.174Z,102969.94
2023-02-12T17:08:22.833Z,102979.63
2023-02-12T17:10:50.496Z,102976.94
2023-02-12T17:13:17.648Z,102976.78
2023-02-12T17:15:57.578Z,102982.03
2023-02-12T17:18:25.025Z,102982.34
2023-02-12T17:20:58.822Z,102991.22
2023-02-12T17:23:26.191Z,102978.84
2023-02-12T17:25:54.047Z,102981.63
2023-02-12T17:28:22.228Z,102985.03
2023-02-12T17:30:49.160Z,102988.19
2023-02-12T17:33:15.936Z,102990.03
2023-02-12T17:35:42.786Z,102971.75
2023-02-12T17:38:09.203Z,102980.16
2023-02-12T17:40:37.627Z,102984.75
2023-02-12T17:43:05.594Z,102983.28
2023-02-12T17:45:33.189Z,102988.53
2023-02-12T17:47:59.746Z,102986.06
2023-02-12T17:50:26.524Z,102984.16
2023-02-12T17:52:53.145Z,102975.84
2023-02-12T17:55:19.918Z,102977.44
2023-02-12T17:57:51.224Z,102976.56
2023-02-12T18:00:18.924Z,102983.41
2023-02-12T18:02:45.545Z,102978.97
2023-02-12T18:05:12.479Z,102987.22
2023-02-12T18:07:39.550Z,102986.34
2023-02-12T18:10:09.153Z,102985.31
2023-02-12T18:12:39.753Z,102991.28
2023-02-12T18:15:08.224Z,102989.28
2023-02-12T18:17:35.883Z,102991.28
2023-02-12T18:20:05.219Z,102992.31
2023-02-12T18:22:33.723Z,102987.72
2023-02-12T18:25:00.796Z,102985.88
2023-02-12T18:27:27.462Z,102986.75
2023-02-12T18:29:56.311Z,102978.00
2023-02-12T18:32:23.880Z,102979.03
2023-02-12T18:34:50.784Z,102981.81
2023-02-12T18:37:17.185Z,102980.16
2023-02-12T18:39:43.988Z,102979.41
2023-02-12T18:42:10.304Z,102984.47
2023-02-12T18:44:37.164Z,102979.88
2023-02-12T18:47:03.611Z,102978.13
2023-02-12T18:49:30.474Z,102977.91
2023-02-12T18:51:57.171Z,102982.06
2023-02-12T18:54:24.112Z,102979.59
2023-02-12T18:56:52.339Z,102975.31
2023-02-12T18:59:20.431Z,102980.69
2023-02-12T19:01:48.892Z,102973.56
2023-02-12T19:04:17.669Z,102978.94
2023-02-12T19:06:48.177Z,102971.94
2023-02-12T19:09:20.158Z,102982.81
2023-02-12T19:11:48.895Z,102977.41
2023-02-12T19:14:17.717Z,102975.84
2023-02-12T19:16:44.869Z,102970.22
2023-02-12T19:19:12.636Z,102976.31
2023-02-12T19:21:39.269Z,102976.81
2023-02-12T19:24:06.685Z,102976.03
2023-02-12T19:26:34.909Z,102984.19
2023-02-12T19:29:02.227Z,102970.63
2023-02-12T19:31:37.702Z,102979.38
2023-02-12T19:34:07.570Z,102983.66
2023-02-12T19:36:36.071Z,102985.19
2023-02-12T19:39:05.141Z,102983.28
2023-02-12T19:41:32.569Z,102976.00
2023-02-12T19:44:00.768Z,102973.22
2023-02-12T19:46:30.489Z,102974.97
2023-02-12T19:52:16.934Z,102972.06
2023-02-12T19:54:44.885Z,102971.19
2023-02-12T19:57:13.245Z,102966.09
2023-02-12T19:59:41.160Z,102967.69
2023-02-12T20:02:09.826Z,102960.47
2023-02-12T20:04:36.680Z,102970.53
2023-02-12T20:07:05.324Z,102965.94
2023-02-12T20:09:32.199Z,102965.28
2023-02-12T20:11:59.195Z,102969.81
2023-02-12T20:14:26.280Z,102966.25
2023-02-12T20:16:57.847Z,102964.34
2023-02-12T20:19:28.458Z,102969.88
2023-02-12T20:21:56.799Z,102984.03
2023-02-12T20:24:26.211Z,102975.69
2023-02-12T20:26:53.805Z,102975.78
2023-02-12T20:29:21.301Z,102983.72
2023-02-12T20:31:48.355Z,102969.44
2023-02-12T20:34:17.647Z,102970.69
2023-02-12T20:36:45.446Z,102974.25
2023-02-12T20:39:15.247Z,102970.59
2023-02-12T20:41:41.810Z,102974.63
2023-02-12T20:44:15.707Z,102973.69
2023-02-12T20:46:52.406Z,102962.75
2023-02-12T20:49:24.842Z,102960.13
2023-02-12T20:51:52.189Z,102969.97
2023-02-12T20:54:18.717Z,102963.69
2023-02-12T20:56:45.401Z,102969.31
2023-02-12T20:59:12.187Z,102954.31
2023-02-12T21:01:40.727Z,102954.94
2023-02-12T21:04:10.643Z,102964.66
2023-02-12T21:06:39.529Z,102952.97
2023-02-12T21:09:09.160Z,102959.25
2023-02-12T21:11:36.791Z,102966.25
2023-02-12T21:14:20.898Z,102959.09
2023-02-12T21:16:49.860Z,102960.84
2023-02-12T21:19:18.229Z,102962.03
2023-02-12T21:21:45.524Z,102966.84
2023-02-12T21:24:18.995Z,102959.84
2023-02-12T21:26:45.563Z,102963.50
2023-02-12T21:29:12.911Z,102960.94
2023-02-12T21:31:42.345Z,102965.69
2023-02-12T21:34:13.124Z,102957.53
2023-02-12T21:36:41.594Z,102961.91
2023-02-12T21:39:11.985Z,102964.88
2023-02-12T21:41:40.557Z,102962.03
2023-02-12T21:44:12.039Z,102964.50
2023-02-12T21:46:38.848Z,102960.16
2023-02-12T21:49:06.645Z,102967.22
2023-02-12T21:51:39.536Z,102958.25
2023-02-12T21:54:12.592Z,102962.63
2023-02-12T21:56:40.330Z,102968.59
2023-02-12T21:59:11.026Z,102965.81
2023-02-12T22:01:41.923Z,102969.38
2023-02-12T22:04:09.439Z,102964.94
2023-02-12T22:06:48.120Z,102934.13
2023-02-12T22:09:16.882Z,102963.69
2023-02-12T22:11:43.812Z,102966.38
2023-02-12T22:14:16.461Z,102972.66
2023-02-12T22:16:43.544Z,102967.25
2023-02-12T22:19:10.589Z,102965.59
2023-02-12T22:21:39.763Z,102959.09
2023-02-12T22:24:10.101Z,102968.28
2023-02-12T22:26:36.400Z,102965.59
2023-02-12T22:29:08.353Z,102968.44
2023-02-12T22:31:37.096Z,102972.88
2023-02-12T22:34:06.389Z,102972.81
2023-02-12T22:36:35.581Z,102974.72
2023-02-12T22:39:03.204Z,102970.19
2023-02-12T22:41:29.788Z,102962.91
2023-02-12T22:44:01.107Z,102958.44
2023-02-12T22:46:27.727Z,102964.78
2023-02-12T22:48:54.322Z,102969.38
2023-02-12T22:51:26.826Z,102964.28
2023-02-12T22:53:54.544Z,102968.00
2023-02-12T22:56:21.659Z,102962.03
2023-02-12T22:58:48.664Z,102960.22
2023-02-12T23:01:17.114Z,102955.47
2023-02-12T23:03:44.924Z,102956.19
2023-02-12T23:06:14.145Z,102950.44
2023-02-12T23:08:41.424Z,102958.59
2023-02-12T23:11:08.578Z,102957.50
2023-02-12T23:13:35.922Z,102959.97
2023-02-12T23:16:03.431Z,102956.03
2023-02-12T23:18:30.738Z,102959.09
2023-02-12T23:20:57.635Z,102953.06
2023-02-12T23:23:24.613Z,102953.69
2023-02-12T23:25:50.856Z,102952.75
2023-02-12T23:28:17.633Z,102947.84
2023-02-12T23:30:44.072Z,102953.09
2023-02-12T23:33:10.815Z,102946.25
2023-02-12T23:35:36.989Z,102951.66
2023-02-12T23:38:03.720Z,102946.91
2023-02-12T23:40:31.262Z,102944.19
2023-02-12T23:42:57.853Z,102934.38
2023-02-12T23:45:24.101Z,102935.09
2023-02-12T23:47:50.616Z,102934.22
2023-02-12T23:50:16.912Z,102935.31
2023-02-12T23:52:43.391Z,102938.00
2023-02-12T23:55:09.704Z,102930.72
2023-02-12T23:57:36.085Z,102939.28
